Time;durP1;ratioP1;P1;durP2;ratioP2;P2;SDS_P1;SDS_P2;PMS_P1;PMS_P2;Temp;Humidity;BMP_temperature;BMP_pressure;BME280_temperature;BME280_humidity;BME280_pressure;Samples;Min_cycle;Max_cycle;Signal;HPM_P1;HPM_P2
2022/08/03 00:02:19;;;;;;;33.13;16.13;;;;;;;;;;4991079;28;19921;-74
2022/08/03 00:04:49;;;;;;;37.92;17.58;;;;;;;;;;5008532;28;20046;-75
2022/08/03 00:07:18;;;;;;;;;;;;;;;;;;5008606;28;20050;-74
2022/08/03 00:09:49;;;;;;;33.45;16.48;;;;;;;;;;5007403;28;19925;-73
2022/08/03 00:12:20;;;;;;;42.30;18.67;;;;;;;;;;5007476;28;20061;-74
2022/08/03 00:14:49;;;;;;;;;;;;;;;;;;5008591;28;20046;-75
2022/08/03 00:17:19;;;;;;;39.05;19.05;;;;;;;;;;5008082;28;19925;-74
2022/08/03 00:19:49;;;;;;;50.90;23.38;;;;;;;;;;5007698;28;20117;-75
2022/08/03 00:22:19;;;;;;;41.22;19.10;;;;;;;;;;5007333;28;20054;-80
2022/08/03 00:24:51;;;;;;;38.25;17.33;;;;;;;;;;5006878;28;20058;-74
2022/08/03 00:27:21;;;;;;;;;;;;;;;;;;5007949;28;20058;-74
2022/08/03 00:29:51;;;;;;;34.58;16.50;;;;;;;;;;5008171;28;19925;-74
2022/08/03 00:32:28;;;;;;;35.42;17.27;;;;;;;;;;5007858;28;20405;-74
2022/08/03 00:34:57;;;;;;;;;;;;;;;;;;5008233;28;20050;-74
2022/08/03 00:37:27;;;;;;;38.03;17.38;;;;;;;;;;5007302;28;19921;-75
2022/08/03 00:40:10;;;;;;;;;;;;;;;;;;5008318;28;20418;-75
2022/08/03 00:43:10;;;;;;;36.63;18.98;;;;;;;;;;5007835;28;19926;-76
2022/08/03 00:45:41;;;;;;;40.75;18.88;;;;;;;;;;4996761;28;20061;-75
2022/08/03 00:48:12;;;;;;;32.72;16.95;;;;;;;;;;5007767;28;20046;-73
2022/08/03 00:51:01;;;;;;;39.15;18.02;;;;;;;;;;5007787;28;20046;-73
2022/08/03 00:53:31;;;;;;;38.75;19.85;;;;;;;;;;5007400;28;20050;-74
2022/08/03 00:56:02;;;;;;;33.83;17.95;;;;;;;;;;5007593;28;20050;-74
2022/08/03 00:58:32;;;;;;;41.60;20.30;;;;;;;;;;5005892;28;20046;-73
2022/08/03 01:01:05;;;;;;;;;;;;;;;;;;5007728;28;20046;-73
2022/08/03 01:03:36;;;;;;;47.55;21.60;;;;;;;;;;5007593;28;19933;-73
2022/08/03 01:06:05;;;;;;;;;;;;;;;;;;5007413;28;20085;-73
2022/08/03 01:08:53;;;;;;;34.72;17.10;;;;;;;;;;5007057;28;19921;-74
2022/08/03 01:11:31;;;;;;;;;;;;;;;;;;5007625;28;20054;-74
2022/08/03 01:14:12;;;;;;;41.35;18.02;;;;;;;;;;5006491;28;19926;-73
2022/08/03 01:17:24;;;;;;;40.92;20.50;;;;;;;;;;5006555;28;20049;-73
2022/08/03 01:20:00;;;;;;;49.65;23.15;;;;;;;;;;4946074;29;20054;-74
2022/08/03 01:22:59;;;;;;;41.80;21.20;;;;;;;;;;4980078;28;20062;-73
2022/08/03 01:25:41;;;;;;;38.28;19.10;;;;;;;;;;4987542;28;20057;-74
2022/08/03 01:28:48;;;;;;;38.72;18.60;;;;;;;;;;4987427;28;20054;-74
2022/08/03 01:31:21;;;;;;;;;;;;;;;;;;4988464;28;20042;-75
2022/08/03 01:33:58;;;;;;;37.78;17.58;;;;;;;;;;4986679;28;19926;-75
2022/08/03 01:36:43;;;;;;;37.65;19.17;;;;;;;;;;4987431;28;20604;-74
2022/08/03 01:39:16;;;;;;;37.08;18.42;;;;;;;;;;4985015;28;20069;-75
2022/08/03 01:41:58;;;;;;;40.78;18.08;;;;;;;;;;4982855;28;20073;-74
2022/08/03 01:44:30;;;;;;;34.92;18.20;;;;;;;;;;4985367;28;20046;-74
2022/08/03 01:47:03;;;;;;;36.00;17.63;;;;;;;;;;4985423;28;20046;-74
2022/08/03 01:49:38;;;;;;;35.13;17.95;;;;;;;;;;4985155;28;20050;-73
2022/08/03 01:52:10;;;;;;;36.55;19.38;;;;;;;;;;4984522;28;20046;-74
2022/08/03 01:54:44;;;;;;;37.30;18.88;;;;;;;;;;4986624;28;20050;-74
2022/08/03 01:57:15;;;;;;;34.17;17.65;;;;;;;;;;4987371;28;20073;-74
2022/08/03 01:59:48;;;;;;;47.13;18.70;;;;;;;;;;4987502;28;20054;-74
2022/08/03 02:02:20;;;;;;;34.40;18.08;;;;;;;;;;4990832;28;20054;-74
2022/08/03 02:05:06;;;;;;;31.90;17.88;;;;;;;;;;4991152;28;20046;-74
2022/08/03 02:07:41;;;;;;;34.25;18.88;;;;;;;;;;4991120;28;20050;-74
2022/08/03 02:10:15;;;;;;;32.38;16.83;;;;;;;;;;4991310;28;20589;-74
2022/08/03 02:13:07;;;;;;;35.50;18.98;;;;;;;;;;4991356;28;20667;-74
2022/08/03 02:15:38;;;;;;;38.95;19.55;;;;;;;;;;4991311;28;20054;-74
2022/08/03 02:18:10;;;;;;;40.35;19.67;;;;;;;;;;4990554;28;20046;-74
2022/08/03 02:20:43;;;;;;;40.15;19.27;;;;;;;;;;4990716;28;20069;-74
2022/08/03 02:23:17;;;;;;;36.45;18.48;;;;;;;;;;4990366;28;20050;-73
2022/08/03 02:25:52;;;;;;;39.10;20.15;;;;;;;;;;4990791;28;20061;-73
2022/08/03 02:28:31;;;;;;;32.90;17.42;;;;;;;;;;4990369;28;20073;-74
2022/08/03 02:31:14;;;;;;;36.13;17.17;;;;;;;;;;4990760;28;20046;-74
2022/08/03 02:34:00;;;;;;;34.83;17.75;;;;;;;;;;4990665;28;20537;-74
2022/08/03 02:36:35;;;;;;;32.97;16.63;;;;;;;;;;4990721;28;20050;-74
2022/08/03 02:39:09;;;;;;;39.10;17.48;;;;;;;;;;4989631;28;20054;-74
2022/08/03 02:41:46;;;;;;;30.67;16.42;;;;;;;;;;4990263;28;20057;-74
2022/08/03 02:44:25;;;;;;;35.13;16.75;;;;;;;;;;4989237;28;20065;-74
2022/08/03 02:47:01;;;;;;;37.25;17.77;;;;;;;;;;4990474;28;20401;-74
2022/08/03 02:49:31;;;;;;;39.03;18.17;;;;;;;;;;4989727;28;20058;-74
2022/08/03 02:52:20;;;;;;;34.10;16.60;;;;;;;;;;4990040;28;20053;-74
2022/08/03 02:54:55;;;;;;;33.13;18.23;;;;;;;;;;4990262;28;20043;-73
2022/08/03 02:57:27;;;;;;;35.17;16.92;;;;;;;;;;4989326;28;20069;-73
2022/08/03 02:59:59;;;;;;;39.58;18.08;;;;;;;;;;4989877;28;20053;-73
2022/08/03 03:02:30;;;;;;;36.97;18.00;;;;;;;;;;4989840;28;20061;-73
2022/08/03 03:05:01;;;;;;;41.13;20.77;;;;;;;;;;4990202;28;20054;-74
2022/08/03 03:07:53;;;;;;;40.70;20.17;;;;;;;;;;4989594;28;20613;-73
2022/08/03 03:10:24;;;;;;;42.63;20.00;;;;;;;;;;4989437;28;20054;-73
2022/08/03 03:12:57;;;;;;;49.15;21.42;;;;;;;;;;4988713;28;20042;-73
2022/08/03 03:15:29;;;;;;;48.28;22.30;;;;;;;;;;4989108;28;20046;-73
2022/08/03 03:18:00;;;;;;;46.08;22.15;;;;;;;;;;4989586;28;20058;-73
2022/08/03 03:20:32;;;;;;;44.10;20.30;;;;;;;;;;4990163;28;20049;-73
2022/08/03 03:23:04;;;;;;;46.90;21.58;;;;;;;;;;4989315;28;20046;-73
2022/08/03 03:25:35;;;;;;;41.67;19.90;;;;;;;;;;4971851;28;20053;-73
2022/08/03 03:28:06;;;;;;;51.30;23.67;;;;;;;;;;4989367;28;20505;-72
2022/08/03 03:30:37;;;;;;;45.30;21.35;;;;;;;;;;4989483;28;20050;-73
2022/08/03 03:33:07;;;;;;;46.78;21.42;;;;;;;;;;4989075;28;20059;-73
2022/08/03 03:35:38;;;;;;;50.45;21.23;;;;;;;;;;4989069;28;20046;-72
2022/08/03 03:38:10;;;;;;;46.25;23.02;;;;;;;;;;4971484;28;20054;-73
2022/08/03 03:40:40;;;;;;;49.20;23.15;;;;;;;;;;4989597;28;20050;-73
2022/08/03 03:43:11;;;;;;;59.58;25.55;;;;;;;;;;4971930;28;20406;-72
2022/08/03 03:45:42;;;;;;;49.17;23.33;;;;;;;;;;4989922;28;20094;-72
2022/08/03 03:48:12;;;;;;;54.03;25.80;;;;;;;;;;4989201;28;20210;-72
2022/08/03 03:50:43;;;;;;;54.88;23.65;;;;;;;;;;4988415;28;20073;-73
2022/08/03 03:53:14;;;;;;;60.42;26.60;;;;;;;;;;4989047;28;20046;-72
2022/08/03 03:55:44;;;;;;;50.38;24.15;;;;;;;;;;4988981;28;20057;-73
2022/08/03 03:58:32;;;;;;;49.85;25.95;;;;;;;;;;4988823;28;20046;-73
2022/08/03 04:01:02;;;;;;;48.80;22.65;;;;;;;;;;4988977;28;20050;-73
2022/08/03 04:03:31;;;;;;;52.65;24.33;;;;;;;;;;4988756;28;20051;-74
2022/08/03 04:11:40;;;;;;;46.92;21.33;;;;;;;;;;4988255;28;20050;-73
2022/08/03 04:14:32;;;;;;;44.45;21.63;;;;;;;;;;4988255;28;20502;-73
2022/08/03 04:17:05;;;;;;;45.03;21.92;;;;;;;;;;4988534;28;20050;-73
2022/08/03 04:19:41;;;;;;;46.85;22.83;;;;;;;;;;4988553;28;20421;-73
2022/08/03 04:22:15;;;;;;;50.05;21.27;;;;;;;;;;4988107;28;20066;-73
2022/08/03 04:24:48;;;;;;;49.50;22.77;;;;;;;;;;4988029;28;20049;-73
2022/08/03 04:27:22;;;;;;;43.38;20.50;;;;;;;;;;4988551;28;20034;-73
2022/08/03 04:29:56;;;;;;;39.05;19.38;;;;;;;;;;4988893;28;20050;-73
2022/08/03 04:32:27;;;;;;;42.40;20.20;;;;;;;;;;4988048;28;20058;-73
2022/08/03 04:34:57;;;;;;;47.90;22.42;;;;;;;;;;4988558;28;20050;-73
2022/08/03 04:37:50;;;;;;;44.58;22.35;;;;;;;;;;4988245;28;20058;-73
2022/08/03 04:40:27;;;;;;;44.40;20.50;;;;;;;;;;4988090;28;20057;-73
2022/08/03 04:42:58;;;;;;;39.70;19.33;;;;;;;;;;4987516;28;20053;-73
2022/08/03 04:45:30;;;;;;;52.83;24.08;;;;;;;;;;4988067;28;20042;-73
2022/08/03 04:48:01;;;;;;;54.50;23.80;;;;;;;;;;4987662;28;20075;-73
2022/08/03 04:50:32;;;;;;;45.17;19.67;;;;;;;;;;4987728;28;20050;-73
2022/08/03 04:53:06;;;;;;;42.75;21.63;;;;;;;;;;4987964;28;20054;-73
2022/08/03 04:55:37;;;;;;;41.63;20.40;;;;;;;;;;4988207;28;20046;-73
2022/08/03 04:58:07;;;;;;;;;;;;;;;;;;4986259;28;20513;-73
2022/08/03 05:00:36;;;;;;;45.20;20.67;;;;;;;;;;4987713;28;20385;-73
2022/08/03 05:03:06;;;;;;;;;;;;;;;;;;4988403;28;20065;-72
2022/08/03 05:05:53;;;;;;;37.55;18.38;;;;;;;;;;4987689;28;19926;-72
2022/08/03 05:08:38;;;;;;;40.92;18.70;;;;;;;;;;4987870;28;20047;-73
2022/08/03 05:11:15;;;;;;;44.05;20.25;;;;;;;;;;4987581;28;20061;-73
2022/08/03 05:13:47;;;;;;;49.55;21.92;;;;;;;;;;4988130;28;20046;-73
2022/08/03 05:16:17;;;;;;;49.85;23.27;;;;;;;;;;4988388;28;20493;-73
2022/08/03 05:18:48;;;;;;;43.95;21.70;;;;;;;;;;4988261;28;20057;-73
2022/08/03 05:21:17;;;;;;;;;;;;;;;;;;4987937;28;20473;-73
2022/08/03 05:23:46;;;;;;;39.17;18.48;;;;;;;;;;4986902;28;20373;-73
2022/08/03 05:26:16;;;;;;;;;;;;;;;;;;4987881;28;20486;-73
2022/08/03 05:28:46;;;;;;;35.85;17.67;;;;;;;;;;4987196;28;20409;-73
2022/08/03 05:31:19;;;;;;;41.75;19.58;;;;;;;;;;4987477;28;20042;-73
2022/08/03 05:33:49;;;;;;;46.03;19.80;;;;;;;;;;4987278;28;20057;-73
2022/08/03 05:36:19;;;;;;;40.75;20.27;;;;;;;;;;4990097;28;20057;-73
2022/08/03 05:38:48;;;;;;;;;;;;;;;;;;4992155;28;20478;-73
2022/08/03 05:41:18;;;;;;;43.80;20.02;;;;;;;;;;4974245;28;19926;-73
2022/08/03 05:44:05;;;;;;;38.50;19.45;;;;;;;;;;4973683;28;20433;-72
2022/08/03 05:46:35;;;;;;;42.58;20.33;;;;;;;;;;4990946;28;20759;-73
2022/08/03 05:49:05;;;;;;;39.00;19.38;;;;;;;;;;4991242;28;20502;-73
2022/08/03 05:51:36;;;;;;;36.80;19.08;;;;;;;;;;4990754;28;20062;-73
2022/08/03 05:54:06;;;;;;;34.45;18.40;;;;;;;;;;4991188;28;20054;-73
2022/08/03 05:56:35;;;;;;;46.10;19.38;;;;;;;;;;4990597;28;20039;-72
2022/08/03 05:59:06;;;;;;;38.70;19.23;;;;;;;;;;4990852;28;20054;-73
2022/08/03 06:01:56;;;;;;;43.50;21.02;;;;;;;;;;4973569;28;20065;-72
2022/08/03 06:04:26;;;;;;;43.00;20.33;;;;;;;;;;4990989;28;20414;-73
2022/08/03 06:06:56;;;;;;;43.58;20.85;;;;;;;;;;4974101;28;20058;-73
2022/08/03 06:09:26;;;;;;;43.90;20.48;;;;;;;;;;4990619;28;20054;-73
2022/08/03 06:12:17;;;;;;;47.28;20.77;;;;;;;;;;4990631;28;20057;-73
2022/08/03 06:14:48;;;;;;;47.40;20.42;;;;;;;;;;4990946;28;20062;-73
2022/08/03 06:17:18;;;;;;;36.78;18.98;;;;;;;;;;4990519;28;20054;-72
2022/08/03 06:19:47;;;;;;;;;;;;;;;;;;4990795;28;20046;-72
2022/08/03 06:22:19;;;;;;;38.05;18.77;;;;;;;;;;4972861;28;19926;-73
2022/08/03 06:24:49;;;;;;;;;;;;;;;;;;4990978;28;20050;-73
2022/08/03 06:27:21;;;;;;;39.03;18.05;;;;;;;;;;4991362;28;19921;-72
2022/08/03 06:30:07;;;;;;;40.38;17.90;;;;;;;;;;4990212;28;20050;-73
2022/08/03 06:32:39;;;;;;;35.75;18.13;;;;;;;;;;4989790;28;20046;-73
2022/08/03 06:35:19;;;;;;;41.10;20.20;;;;;;;;;;4990083;28;20034;-73
2022/08/03 06:37:52;;;;;;;41.45;19.10;;;;;;;;;;4990051;28;20057;-73
2022/08/03 06:40:30;;;;;;;40.42;19.60;;;;;;;;;;4990347;28;20058;-73
2022/08/03 06:43:02;;;;;;;41.28;18.23;;;;;;;;;;4990086;28;20050;-73
2022/08/03 06:45:38;;;;;;;38.28;18.60;;;;;;;;;;4990040;28;20513;-73
2022/08/03 06:48:08;;;;;;;;;;;;;;;;;;4990334;28;20379;-73
2022/08/03 06:50:40;;;;;;;46.65;19.80;;;;;;;;;;4990607;28;19922;-73
2022/08/03 06:53:10;;;;;;;51.83;21.65;;;;;;;;;;4990319;28;20039;-73
2022/08/03 06:55:49;;;;;;;49.80;21.88;;;;;;;;;;4990061;28;20049;-72
2022/08/03 06:58:22;;;;;;;47.80;22.17;;;;;;;;;;4989578;28;20078;-73
2022/08/03 07:00:52;;;;;;;;;;;;;;;;;;4990036;28;20054;-73
2022/08/03 07:03:23;;;;;;;40.30;18.40;;;;;;;;;;4989789;28;20006;-73
2022/08/03 07:05:52;;;;;;;;;;;;;;;;;;4972576;28;20489;-73
2022/08/03 07:08:23;;;;;;;46.80;19.60;;;;;;;;;;4989821;28;20492;-73
2022/08/03 07:11:02;;;;;;;42.58;18.33;;;;;;;;;;4989522;28;20054;-73
2022/08/03 07:13:32;;;;;;;40.75;18.42;;;;;;;;;;4989694;28;20042;-73
2022/08/03 07:16:01;;;;;;;;;;;;;;;;;;4973331;28;20038;-74
2022/08/03 07:18:31;;;;;;;42.28;17.98;;;;;;;;;;4989403;28;20308;-74
2022/08/03 07:21:00;;;;;;;45.28;18.75;;;;;;;;;;4989319;28;20046;-74
2022/08/03 07:23:30;;;;;;;41.25;18.80;;;;;;;;;;4971754;28;20058;-74
2022/08/03 07:26:00;;;;;;;37.33;18.67;;;;;;;;;;4990066;28;20053;-74
2022/08/03 07:28:30;;;;;;;43.60;19.85;;;;;;;;;;4989376;28;20045;-74
2022/08/03 07:31:00;;;;;;;39.08;18.48;;;;;;;;;;4989046;28;20517;-74
2022/08/03 07:33:29;;;;;;;;;;;;;;;;;;4989887;28;20046;-74
2022/08/03 07:35:59;;;;;;;40.28;19.20;;;;;;;;;;4988832;28;19926;-73
2022/08/03 07:38:29;;;;;;;39.35;17.73;;;;;;;;;;4989783;28;20393;-74
2022/08/03 07:40:58;;;;;;;39.30;18.20;;;;;;;;;;4989073;28;20058;-74
2022/08/03 07:43:28;;;;;;;42.00;19.75;;;;;;;;;;4989277;28;20061;-73
2022/08/03 07:45:57;;;;;;;;;;;;;;;;;;4989690;28;20050;-74
2022/08/03 07:48:28;;;;;;;38.45;19.27;;;;;;;;;;4988844;28;19925;-73
2022/08/03 07:50:57;;;;;;;38.85;18.25;;;;;;;;;;4971490;28;20497;-74
2022/08/03 07:53:27;;;;;;;41.85;18.20;;;;;;;;;;4989282;28;20767;-74
2022/08/03 07:55:57;;;;;;;;;;;;;;;;;;4989405;28;20077;-74
2022/08/03 07:58:28;;;;;;;39.70;18.65;;;;;;;;;;4988524;28;19925;-74
2022/08/03 08:00:58;;;;;;;;;;;;;;;;;;4972770;28;20061;-74
2022/08/03 08:03:28;;;;;;;44.15;19.73;;;;;;;;;;4988850;28;19926;-74
2022/08/03 08:06:18;;;;;;;46.60;20.77;;;;;;;;;;4988209;28;20502;-74
2022/08/03 08:08:48;;;;;;;41.17;20.40;;;;;;;;;;4988438;28;20054;-74
2022/08/03 08:11:18;;;;;;;50.78;22.58;;;;;;;;;;4988332;28;20054;-74
2022/08/03 08:13:47;;;;;;;56.35;22.88;;;;;;;;;;4988574;28;20053;-74
2022/08/03 08:16:18;;;;;;;45.92;20.23;;;;;;;;;;4988725;28;20053;-74
2022/08/03 08:18:47;;;;;;;;;;;;;;;;;;4989741;28;20047;-74
2022/08/03 08:21:17;;;;;;;50.03;21.25;;;;;;;;;;4988445;28;19925;-74
2022/08/03 08:23:48;;;;;;;52.90;21.42;;;;;;;;;;4988101;28;20042;-74
2022/08/03 08:26:25;;;;;;;57.00;21.88;;;;;;;;;;4988018;28;20046;-73
2022/08/03 08:28:54;;;;;;;;;;;;;;;;;;4988919;28;20528;-73
2022/08/03 08:31:24;;;;;;;53.05;20.90;;;;;;;;;;4987809;28;19925;-74
2022/08/03 08:33:54;;;;;;;51.50;21.50;;;;;;;;;;4987923;28;20054;-73
2022/08/03 08:36:34;;;;;;;60.30;22.80;;;;;;;;;;4988225;28;20061;-74
2022/08/03 08:39:04;;;;;;;52.97;22.50;;;;;;;;;;4970215;28;20050;-74
2022/08/03 08:41:33;;;;;;;;;;;;;;;;;;4971161;28;20058;-74
2022/08/03 08:44:03;;;;;;;50.05;20.13;;;;;;;;;;4988534;28;20381;-74
2022/08/03 08:46:36;;;;;;;53.22;23.85;;;;;;;;;;4987921;28;20047;-74
2022/08/03 08:49:08;;;;;;;54.03;22.33;;;;;;;;;;4987591;28;20889;-74
2022/08/03 08:51:42;;;;;;;51.60;22.98;;;;;;;;;;4987772;28;20054;-74
2022/08/03 08:54:31;;;;;;;56.03;23.02;;;;;;;;;;4987654;28;20046;-73
2022/08/03 08:57:03;;;;;;;55.95;22.73;;;;;;;;;;4987359;28;20050;-74
2022/08/03 08:59:55;;;;;;;65.95;25.45;;;;;;;;;;4987858;28;20042;-75
2022/08/03 09:02:29;;;;;;;61.92;25.30;;;;;;;;;;4987318;28;20057;-74
2022/08/03 09:05:00;;;;;;;61.42;25.23;;;;;;;;;;4970354;28;20544;-74
2022/08/03 09:07:35;;;;;;;62.22;24.98;;;;;;;;;;4987772;28;20077;-76
2022/08/03 09:10:07;;;;;;;63.05;24.38;;;;;;;;;;4969788;28;20039;-75
2022/08/03 09:12:46;;;;;;;60.08;23.85;;;;;;;;;;4987521;28;20051;-74
2022/08/03 09:15:22;;;;;;;56.53;24.52;;;;;;;;;;4987667;28;20061;-74
2022/08/03 09:17:55;;;;;;;57.22;24.58;;;;;;;;;;4987150;28;20050;-74
2022/08/03 09:20:29;;;;;;;62.20;25.23;;;;;;;;;;4987725;28;20053;-74
2022/08/03 09:23:07;;;;;;;63.78;24.98;;;;;;;;;;4987849;28;20050;-74
2022/08/03 09:26:00;;;;;;;55.78;23.80;;;;;;;;;;4987138;28;20050;-74
2022/08/03 09:28:35;;;;;;;62.22;25.98;;;;;;;;;;4986900;28;20046;-74
2022/08/03 09:31:34;;;;;;;;;;;;;;;;;;4987728;28;20053;-74
2022/08/03 09:34:12;;;;;;;58.50;23.70;;;;;;;;;;4989654;28;19925;-74
2022/08/03 09:36:47;;;;;;;61.67;23.60;;;;;;;;;;4989274;28;20046;-74
2022/08/03 09:39:20;;;;;;;54.50;22.15;;;;;;;;;;4989008;28;20043;-74
2022/08/03 09:42:12;;;;;;;55.88;22.52;;;;;;;;;;4987415;28;20429;-74
2022/08/03 09:44:48;;;;;;;57.15;24.30;;;;;;;;;;4986625;28;20042;-74
2022/08/03 09:47:29;;;;;;;56.72;24.55;;;;;;;;;;4969736;28;20046;-75
2022/08/03 09:50:08;;;;;;;60.15;24.73;;;;;;;;;;4986885;28;20409;-74
2022/08/03 09:52:40;;;;;;;54.25;22.67;;;;;;;;;;4987230;28;20050;-75
2022/08/03 09:55:22;;;;;;;54.78;22.67;;;;;;;;;;4987491;28;20046;-74
2022/08/03 09:58:13;;;;;;;48.40;20.50;;;;;;;;;;4987050;28;20050;-76
2022/08/03 10:01:04;;;;;;;51.42;22.33;;;;;;;;;;4987045;28;20058;-75
2022/08/03 10:03:36;;;;;;;51.67;19.88;;;;;;;;;;4987115;28;20042;-75
2022/08/03 10:06:27;;;;;;;41.83;19.48;;;;;;;;;;4986813;28;20038;-74
2022/08/03 10:09:14;;;;;;;52.55;20.95;;;;;;;;;;4986682;28;20042;-75
2022/08/03 10:11:45;;;;;;;40.95;19.05;;;;;;;;;;4986988;28;20046;-74
2022/08/03 10:14:18;;;;;;;45.17;20.45;;;;;;;;;;4986695;28;20038;-74
2022/08/03 10:16:49;;;;;;;43.25;19.02;;;;;;;;;;4985910;28;20508;-75
2022/08/03 10:19:18;;;;;;;41.63;18.50;;;;;;;;;;4987412;28;20054;-75
2022/08/03 10:22:00;;;;;;;43.42;20.65;;;;;;;;;;4971164;28;20066;-75
2022/08/03 10:24:34;;;;;;;48.75;19.85;;;;;;;;;;4990689;28;20521;-76
2022/08/03 10:27:07;;;;;;;43.13;18.98;;;;;;;;;;4990606;28;20046;-75
2022/08/03 10:29:40;;;;;;;42.15;20.15;;;;;;;;;;4990603;28;20494;-75
2022/08/03 10:32:38;;;;;;;40.22;20.02;;;;;;;;;;4990565;28;20054;-74
2022/08/03 10:35:13;;;;;;;44.17;19.70;;;;;;;;;;4990306;28;20050;-75
2022/08/03 10:37:57;;;;;;;47.33;20.85;;;;;;;;;;4990229;28;20505;-79
2022/08/03 10:40:29;;;;;;;47.42;19.73;;;;;;;;;;4971419;28;20046;-75
2022/08/03 10:43:22;;;;;;;41.50;20.90;;;;;;;;;;4988878;28;20050;-76
2022/08/03 10:45:52;;;;;;;52.22;23.75;;;;;;;;;;4989689;28;20481;-75
2022/08/03 10:48:23;;;;;;;47.72;20.88;;;;;;;;;;4990025;28;20409;-74
2022/08/03 10:50:53;;;;;;;43.75;20.83;;;;;;;;;;4989723;28;20054;-75
2022/08/03 10:53:41;;;;;;;38.42;18.67;;;;;;;;;;4989656;28;20053;-75
2022/08/03 10:59:49;;;;;;;36.67;18.30;;;;;;;;;;4989237;28;20046;-74
2022/08/03 11:02:20;;;;;;;37.78;18.65;;;;;;;;;;4989677;28;20524;-74
2022/08/03 11:05:26;;;;;;;31.23;16.67;;;;;;;;;;4989228;28;20065;-74
2022/08/03 11:08:21;;;;;;;32.13;16.80;;;;;;;;;;4990124;28;20054;-74
2022/08/03 11:11:00;;;;;;;26.52;14.80;;;;;;;;;;4989681;28;20043;-73
2022/08/03 11:13:32;;;;;;;25.83;15.07;;;;;;;;;;4989392;28;20057;-73
2022/08/03 11:16:19;;;;;;;26.85;15.25;;;;;;;;;;4989369;28;20042;-74
2022/08/03 11:19:21;;;;;;;23.48;14.02;;;;;;;;;;4989458;28;20136;-75
2022/08/03 11:21:56;;;;;;;24.95;15.68;;;;;;;;;;4971429;28;20081;-73
2022/08/03 11:24:46;;;;;;;25.45;14.45;;;;;;;;;;4989437;28;20065;-75
2022/08/03 11:27:19;;;;;;;25.42;13.35;;;;;;;;;;4989265;28;20053;-75
2022/08/03 11:30:10;;;;;;;23.88;13.77;;;;;;;;;;4989311;28;20521;-75
2022/08/03 11:32:40;;;;;;;22.00;12.68;;;;;;;;;;4987984;28;20406;-74
2022/08/03 11:35:20;;;;;;;25.13;13.05;;;;;;;;;;4988913;28;20054;-75
2022/08/03 11:37:59;;;;;;;20.25;11.95;;;;;;;;;;4989476;28;20046;-75
2022/08/03 11:40:49;;;;;;;19.00;12.43;;;;;;;;;;4989355;28;20042;-75
2022/08/03 11:43:22;;;;;;;25.65;12.82;;;;;;;;;;4988821;28;20057;-75
2022/08/03 11:45:58;;;;;;;22.45;12.52;;;;;;;;;;4989179;28;20054;-75
2022/08/03 11:48:35;;;;;;;21.60;13.57;;;;;;;;;;4989170;28;20551;-75
2022/08/03 11:51:07;;;;;;;18.42;11.50;;;;;;;;;;4988983;28;20046;-74
2022/08/03 11:53:43;;;;;;;19.48;13.32;;;;;;;;;;4988746;28;20383;-75
2022/08/03 11:56:13;;;;;;;22.50;13.98;;;;;;;;;;4987690;28;20042;-74
2022/08/03 11:58:54;;;;;;;24.30;13.88;;;;;;;;;;4971143;28;20525;-73
2022/08/03 12:01:44;;;;;;;24.42;13.23;;;;;;;;;;4988205;28;20053;-74
2022/08/03 12:04:15;;;;;;;22.00;13.63;;;;;;;;;;4987682;28;20050;-74
2022/08/03 12:07:03;;;;;;;21.52;13.85;;;;;;;;;;4987588;28;20545;-74
2022/08/03 12:09:35;;;;;;;20.17;12.25;;;;;;;;;;4988169;28;20524;-76
2022/08/03 12:12:05;;;;;;;22.20;13.65;;;;;;;;;;4988568;28;20080;-74
2022/08/03 12:14:35;;;;;;;17.90;12.93;;;;;;;;;;4971286;28;20512;-74
2022/08/03 12:17:20;;;;;;;18.40;12.48;;;;;;;;;;4988033;28;20053;-74
2022/08/03 12:19:50;;;;;;;18.52;12.13;;;;;;;;;;4987610;28;20047;-74
2022/08/03 12:22:32;;;;;;;17.13;11.68;;;;;;;;;;4988710;28;20046;-75
2022/08/03 12:25:03;;;;;;;18.15;12.45;;;;;;;;;;4988139;28;20057;-74
2022/08/03 12:27:35;;;;;;;16.48;10.80;;;;;;;;;;4988648;28;20042;-74
2022/08/03 12:30:05;;;;;;;17.50;11.25;;;;;;;;;;4988012;28;20046;-75
2022/08/03 12:32:35;;;;;;;15.40;11.00;;;;;;;;;;4988359;28;20050;-75
2022/08/03 12:35:05;;;;;;;15.13;10.10;;;;;;;;;;4988423;28;20056;-74
2022/08/03 12:37:37;;;;;;;18.75;10.73;;;;;;;;;;4987387;28;20042;-75
2022/08/03 12:40:09;;;;;;;17.13;10.70;;;;;;;;;;4970057;28;20050;-75
2022/08/03 12:42:45;;;;;;;15.63;10.32;;;;;;;;;;4986908;28;20046;-74
2022/08/03 12:45:26;;;;;;;13.15;9.45;;;;;;;;;;4987330;28;20784;-74
2022/08/03 12:48:00;;;;;;;14.40;10.18;;;;;;;;;;4986148;28;20360;-75
2022/08/03 12:50:33;;;;;;;14.00;10.25;;;;;;;;;;4987023;28;20125;-75
2022/08/03 12:53:05;;;;;;;13.30;9.65;;;;;;;;;;4987585;28;20057;-75
2022/08/03 12:55:38;;;;;;;14.40;10.07;;;;;;;;;;4987303;28;20053;-75
2022/08/03 12:58:35;;;;;;;14.65;10.43;;;;;;;;;;4987016;28;20050;-76
2022/08/03 13:01:07;;;;;;;16.20;10.20;;;;;;;;;;4987617;28;20072;-75
2022/08/03 13:03:43;;;;;;;16.27;9.60;;;;;;;;;;4988215;28;20054;-75
2022/08/03 13:06:23;;;;;;;13.13;9.65;;;;;;;;;;4987825;28;20039;-75
2022/08/03 13:09:07;;;;;;;15.10;10.00;;;;;;;;;;4987619;28;20351;-76
2022/08/03 13:11:37;;;;;;;14.65;9.32;;;;;;;;;;4988058;28;20502;-74
2022/08/03 13:14:27;;;;;;;15.55;9.43;;;;;;;;;;4973170;28;20057;-76
2022/08/03 13:16:57;;;;;;;17.65;10.18;;;;;;;;;;4986791;28;20057;-74
2022/08/03 13:19:27;;;;;;;16.17;10.93;;;;;;;;;;4970358;28;20050;-74
2022/08/03 13:21:57;;;;;;;18.75;12.07;;;;;;;;;;4987191;28;20076;-74
2022/08/03 13:24:32;;;;;;;;;;;;;;;;;;4987839;28;20382;-74
2022/08/03 13:27:04;;;;;;;18.23;10.95;;;;;;;;;;4987062;28;19933;-74
2022/08/03 13:29:54;;;;;;;17.75;11.90;;;;;;;;;;4986635;28;20593;-74
2022/08/03 13:32:25;;;;;;;15.98;10.80;;;;;;;;;;4986864;28;20065;-74
2022/08/03 13:34:54;;;;;;;17.05;12.10;;;;;;;;;;4986472;28;20057;-73
2022/08/03 13:37:25;;;;;;;23.85;12.80;;;;;;;;;;4986739;28;20084;-74
2022/08/03 13:39:55;;;;;;;17.52;11.95;;;;;;;;;;4987175;28;20054;-74
2022/08/03 13:42:32;;;;;;;23.10;12.50;;;;;;;;;;4986428;28;20061;-74
2022/08/03 13:45:03;;;;;;;19.48;12.73;;;;;;;;;;4987400;28;20054;-74
2022/08/03 13:47:35;;;;;;;31.52;14.10;;;;;;;;;;4970754;28;20061;-74
2022/08/03 13:50:06;;;;;;;18.25;12.27;;;;;;;;;;4986674;28;20061;-74
2022/08/03 13:52:36;;;;;;;18.92;12.55;;;;;;;;;;4971053;28;20071;-74
2022/08/03 13:55:07;;;;;;;19.48;12.77;;;;;;;;;;4991449;28;20513;-74
2022/08/03 13:57:37;;;;;;;22.17;12.27;;;;;;;;;;4991614;28;20057;-74
2022/08/03 14:00:27;;;;;;;17.42;11.57;;;;;;;;;;4990994;28;20050;-75
2022/08/03 14:02:59;;;;;;;17.92;12.18;;;;;;;;;;4990972;28;20050;-74
2022/08/03 14:05:44;;;;;;;18.25;12.05;;;;;;;;;;4973072;28;20685;-74
2022/08/03 14:08:14;;;;;;;19.13;12.27;;;;;;;;;;4990677;28;20069;-75
2022/08/03 14:10:44;;;;;;;16.85;10.93;;;;;;;;;;4991190;28;20042;-75
2022/08/03 14:13:15;;;;;;;17.08;12.18;;;;;;;;;;4990888;28;20057;-75
2022/08/03 14:15:46;;;;;;;16.50;12.02;;;;;;;;;;4973390;28;20050;-75
2022/08/03 14:18:20;;;;;;;19.23;12.00;;;;;;;;;;4991458;28;20046;-74
2022/08/03 14:21:03;;;;;;;17.52;11.27;;;;;;;;;;4990510;28;20057;-75
2022/08/03 14:23:38;;;;;;;19.42;11.10;;;;;;;;;;4990540;28;20061;-74
2022/08/03 14:26:09;;;;;;;18.15;11.57;;;;;;;;;;4973011;28;20050;-75
2022/08/03 14:28:39;;;;;;;21.10;12.52;;;;;;;;;;4989658;28;20057;-74
2022/08/03 14:31:09;;;;;;;15.10;10.63;;;;;;;;;;4988944;28;20058;-74
2022/08/03 14:33:59;;;;;;;18.60;11.35;;;;;;;;;;4989422;28;20073;-75
2022/08/03 14:36:29;;;;;;;18.90;10.35;;;;;;;;;;4989555;28;20054;-75
2022/08/03 14:38:59;;;;;;;15.98;10.82;;;;;;;;;;4990018;28;20054;-75
2022/08/03 14:41:30;;;;;;;18.17;11.18;;;;;;;;;;4990852;28;20490;-74
2022/08/03 14:43:59;;;;;;;14.60;10.15;;;;;;;;;;4972683;28;20429;-74
2022/08/03 14:46:31;;;;;;;17.83;10.88;;;;;;;;;;4990244;28;20513;-74
2022/08/03 14:49:01;;;;;;;18.45;11.35;;;;;;;;;;4989471;28;20069;-75
2022/08/03 14:51:51;;;;;;;14.02;10.57;;;;;;;;;;4975539;28;20058;-74
2022/08/03 14:54:22;;;;;;;13.55;10.60;;;;;;;;;;4989420;28;20321;-75
2022/08/03 14:56:52;;;;;;;13.80;10.13;;;;;;;;;;4989869;28;20042;-74
2022/08/03 14:59:22;;;;;;;21.92;11.32;;;;;;;;;;4989834;28;20073;-74
2022/08/03 15:01:51;;;;;;;18.88;9.93;;;;;;;;;;4988915;28;20085;-74
2022/08/03 15:04:36;;;;;;;13.00;9.30;;;;;;;;;;4989426;28;20046;-75
2022/08/03 15:07:06;;;;;;;15.13;10.35;;;;;;;;;;4988522;28;20528;-74
2022/08/03 15:09:37;;;;;;;15.27;10.23;;;;;;;;;;4988928;28;20057;-75
2022/08/03 15:12:08;;;;;;;16.38;10.85;;;;;;;;;;4988883;28;20425;-74
2022/08/03 15:14:38;;;;;;;12.88;9.88;;;;;;;;;;4989642;28;20049;-73
2022/08/03 15:17:09;;;;;;;16.25;10.38;;;;;;;;;;4989530;28;20053;-74
2022/08/03 15:19:39;;;;;;;18.83;11.65;;;;;;;;;;4989485;28;20077;-74
2022/08/03 15:22:29;;;;;;;17.25;11.73;;;;;;;;;;4988910;28;20056;-75
2022/08/03 15:25:04;;;;;;;17.95;11.65;;;;;;;;;;4988663;28;20050;-75